createdAt,value
2022-09-30T00:01:39.935Z,17.69
2022-09-30T00:04:09.502Z,17.68
2022-09-30T00:06:37.651Z,17.63
2022-09-30T00:09:06.906Z,17.64
2022-09-30T00:11:38.751Z,17.73
2022-09-30T00:14:08.034Z,17.70
2022-09-30T00:16:38.870Z,17.74
2022-09-30T00:19:07.188Z,17.78
2022-09-30T00:21:35.707Z,17.91
2022-09-30T00:24:04.829Z,17.88
2022-09-30T00:26:33.900Z,17.84
2022-09-30T00:29:03.120Z,17.79
2022-09-30T00:31:33.926Z,17.75
2022-09-30T00:34:11.526Z,17.77
2022-09-30T00:36:43.687Z,17.92
2022-09-30T00:39:14.793Z,18.01
2022-09-30T00:41:43.539Z,18.11
2022-09-30T00:44:46.962Z,18.18
2022-09-30T00:47:32.227Z,18.32
2022-09-30T00:50:06.652Z,18.39
2022-09-30T00:52:36.058Z,18.48
2022-09-30T00:55:11.214Z,18.52
2022-09-30T00:57:39.399Z,18.52
2022-09-30T01:00:09.201Z,18.54
2022-09-30T01:02:37.651Z,18.61
2022-09-30T01:05:09.559Z,18.59
2022-09-30T01:07:37.887Z,18.55
2022-09-30T01:10:06.667Z,18.53
2022-09-30T01:12:35.180Z,18.49
2022-09-30T01:15:05.190Z,18.35
2022-09-30T01:17:43.545Z,18.30
2022-09-30T01:20:48.663Z,18.29
2022-09-30T01:23:42.792Z,18.15
2022-09-30T01:26:52.530Z,18.05
2022-09-30T01:29:42.076Z,17.92
2022-09-30T01:32:19.974Z,17.85
2022-09-30T01:35:01.237Z,17.83
2022-09-30T01:37:38.858Z,17.85
2022-09-30T01:40:13.836Z,17.79
2022-09-30T01:42:53.270Z,17.81
2022-09-30T01:45:31.890Z,17.78
2022-09-30T01:48:04.727Z,17.75
2022-09-30T01:50:41.433Z,17.72
2022-09-30T01:53:16.878Z,17.70
2022-09-30T01:55:52.038Z,17.67
2022-09-30T01:58:26.879Z,17.62
2022-09-30T02:01:00.913Z,17.61
2022-09-30T02:03:36.737Z,17.59
2022-09-30T02:06:08.773Z,17.58
2022-09-30T02:08:42.914Z,17.57
2022-09-30T02:11:16.409Z,17.60
2022-09-30T02:13:51.263Z,17.57
2022-09-30T02:16:24.701Z,17.54
2022-09-30T02:18:57.510Z,17.53
2022-09-30T02:21:34.038Z,17.54
2022-09-30T02:24:07.084Z,17.51
2022-09-30T02:26:40.402Z,17.50
2022-09-30T02:29:15.218Z,17.48
2022-09-30T02:31:46.073Z,17.47
2022-09-30T02:34:20.167Z,17.47
2022-09-30T02:36:53.754Z,17.44
2022-09-30T02:39:28.634Z,17.42
2022-09-30T02:42:03.726Z,17.42
2022-09-30T02:44:32.971Z,17.48
2022-09-30T02:47:15.659Z,17.49
2022-09-30T02:49:51.130Z,17.34
2022-09-30T02:52:29.051Z,17.26
2022-09-30T02:55:14.462Z,17.32
2022-09-30T02:57:56.325Z,17.32
2022-09-30T03:00:24.600Z,17.25
2022-09-30T03:02:58.931Z,17.17
2022-09-30T03:05:28.947Z,17.15
2022-09-30T03:07:57.677Z,17.14
2022-09-30T03:10:26.409Z,17.20
2022-09-30T03:13:11.946Z,17.24
2022-09-30T03:15:53.183Z,17.27
2022-09-30T03:18:59.295Z,17.28
2022-09-30T03:21:43.734Z,17.35
2022-09-30T03:24:31.994Z,17.31
2022-09-30T03:27:12.866Z,17.24
2022-09-30T03:29:51.376Z,17.25
2022-09-30T03:32:32.571Z,17.24
2022-09-30T03:35:06.254Z,17.32
2022-09-30T03:37:45.588Z,17.30
2022-09-30T03:40:23.053Z,17.39
2022-09-30T03:42:56.077Z,17.47
2022-09-30T03:45:31.910Z,17.45
2022-09-30T03:48:05.940Z,17.50
2022-09-30T03:50:37.090Z,17.53
2022-09-30T03:53:12.696Z,17.51
2022-09-30T03:55:49.295Z,17.47
2022-09-30T03:58:17.915Z,17.41
2022-09-30T04:00:50.845Z,17.22
2022-09-30T04:03:19.753Z,17.00
2022-09-30T04:05:48.634Z,16.80
2022-09-30T04:08:18.320Z,16.75
2022-09-30T04:10:46.626Z,16.64
2022-09-30T04:13:14.740Z,16.53
2022-09-30T04:15:42.949Z,16.44
2022-09-30T04:18:11.052Z,16.31
2022-09-30T04:20:39.890Z,16.34
2022-09-30T04:23:07.985Z,16.27
2022-09-30T04:25:37.472Z,16.34
2022-09-30T04:28:05.645Z,16.27
2022-09-30T04:30:33.901Z,16.27
2022-09-30T04:33:02.157Z,16.36
2022-09-30T04:35:30.428Z,16.37
2022-09-30T04:37:58.690Z,16.47
2022-09-30T04:40:26.917Z,16.53
2022-09-30T04:42:59.107Z,16.72
2022-09-30T04:45:27.246Z,16.93
2022-09-30T04:47:55.360Z,17.09
2022-09-30T04:50:24.003Z,17.22
2022-09-30T04:52:52.212Z,17.37
2022-09-30T04:55:20.261Z,17.74
2022-09-30T04:57:48.387Z,18.51
2022-09-30T05:00:18.343Z,18.93
2022-09-30T05:02:46.419Z,18.97
2022-09-30T05:05:14.614Z,18.98
2022-09-30T05:07:42.698Z,18.91
2022-09-30T05:10:11.659Z,18.93
2022-09-30T05:12:41.075Z,18.95
2022-09-30T05:15:10.523Z,19.02
2022-09-30T05:17:40.027Z,19.19
2022-09-30T05:20:10.951Z,19.35
2022-09-30T05:22:39.628Z,19.44
2022-09-30T05:25:08.461Z,19.66
2022-09-30T05:27:36.975Z,20.01
2022-09-30T05:30:06.752Z,20.69
2022-09-30T05:32:34.873Z,21.09
2022-09-30T05:35:04.911Z,21.05
2022-09-30T05:37:33.155Z,21.05
2022-09-30T05:40:01.282Z,21.25
2022-09-30T05:42:29.387Z,21.61
2022-09-30T05:44:57.505Z,21.98
2022-09-30T05:47:25.614Z,21.88
2022-09-30T05:49:56.104Z,21.83
2022-09-30T05:52:25.933Z,22.11
2022-09-30T05:54:54.327Z,22.13
2022-09-30T05:57:22.575Z,22.32
2022-09-30T05:59:51.139Z,22.81
2022-09-30T06:02:19.414Z,23.42
2022-09-30T06:04:48.402Z,23.66
2022-09-30T06:07:16.566Z,23.94
2022-09-30T06:09:47.454Z,24.64
2022-09-30T06:12:16.325Z,25.42
2022-09-30T06:14:44.555Z,25.80
2022-09-30T06:17:12.616Z,25.83
2022-09-30T06:19:40.868Z,25.67
2022-09-30T06:22:09.014Z,26.50
2022-09-30T06:24:37.309Z,26.40
2022-09-30T06:27:06.822Z,26.67
2022-09-30T06:29:34.982Z,26.47
2022-09-30T06:32:03.696Z,26.38
2022-09-30T06:34:31.940Z,25.95
2022-09-30T06:37:00.132Z,25.78
2022-09-30T06:39:28.265Z,25.37
2022-09-30T06:41:58.487Z,24.67
2022-09-30T06:44:28.175Z,24.29
2022-09-30T06:46:56.571Z,23.81
2022-09-30T06:49:25.373Z,23.29
2022-09-30T06:51:53.820Z,23.04
2022-09-30T06:54:22.089Z,22.68
2022-09-30T06:56:53.471Z,22.44
2022-09-30T06:59:21.710Z,22.45
2022-09-30T07:01:51.462Z,22.47
2022-09-30T07:04:19.637Z,22.37
2022-09-30T07:06:47.888Z,22.32
2022-09-30T07:09:16.505Z,22.41
2022-09-30T07:11:45.319Z,22.38
2022-09-30T07:14:14.289Z,22.39
2022-09-30T07:16:44.780Z,22.40
2022-09-30T07:19:14.753Z,22.47
2022-09-30T07:21:42.849Z,22.43
2022-09-30T07:24:11.736Z,22.35
2022-09-30T07:26:40.248Z,22.26
2022-09-30T07:29:08.558Z,22.33
2022-09-30T07:31:36.809Z,22.30
2022-09-30T07:34:08.253Z,22.42
2022-09-30T07:36:39.548Z,22.57
2022-09-30T07:39:11.109Z,22.64
2022-09-30T07:41:41.347Z,22.71
2022-09-30T07:44:14.337Z,22.78
2022-09-30T07:46:44.300Z,22.72
2022-09-30T07:49:15.998Z,22.62
2022-09-30T07:51:46.791Z,22.65
2022-09-30T07:54:16.514Z,22.59
2022-09-30T07:59:36.134Z,22.87
2022-09-30T08:02:04.571Z,22.97
2022-09-30T08:04:32.875Z,22.92
2022-09-30T08:07:03.540Z,22.83
2022-09-30T08:09:32.340Z,23.08
2022-09-30T08:12:00.550Z,23.11
2022-09-30T08:14:29.437Z,23.10
2022-09-30T08:17:00.434Z,23.26
2022-09-30T08:19:30.571Z,23.37
2022-09-30T08:22:00.004Z,23.38
2022-09-30T08:24:29.567Z,23.45
2022-09-30T08:26:57.728Z,23.38
2022-09-30T08:32:14.223Z,23.59
2022-09-30T08:34:42.406Z,23.56
2022-09-30T08:37:11.282Z,23.50
2022-09-30T08:39:40.806Z,23.59
2022-09-30T08:42:36.575Z,23.64
2022-09-30T08:45:19.360Z,23.65
2022-09-30T08:47:53.742Z,23.59
2022-09-30T08:50:29.437Z,23.54
2022-09-30T08:53:02.913Z,23.38
2022-09-30T08:55:40.914Z,23.36
2022-09-30T08:58:22.799Z,23.39
2022-09-30T09:00:54.145Z,23.36
2022-09-30T09:03:27.675Z,23.27
2022-09-30T09:06:03.686Z,23.44
2022-09-30T09:08:50.665Z,23.54
2022-09-30T09:11:34.153Z,23.45
2022-09-30T09:14:06.878Z,23.57
2022-09-30T09:16:42.067Z,23.54
2022-09-30T09:19:12.732Z,23.41
2022-09-30T09:21:52.678Z,23.05
2022-09-30T09:24:23.568Z,23.16
2022-09-30T09:26:55.520Z,23.32
2022-09-30T09:29:41.956Z,23.32
2022-09-30T09:32:16.126Z,23.45
2022-09-30T09:34:44.470Z,23.28
2022-09-30T09:37:21.148Z,23.15
2022-09-30T09:40:04.789Z,23.07
2022-09-30T09:42:57.302Z,23.17
2022-09-30T09:45:32.715Z,23.18
2022-09-30T09:48:00.981Z,23.24
2022-09-30T09:50:39.538Z,23.34
2022-09-30T09:53:22.339Z,23.34
2022-09-30T09:55:55.410Z,23.39
2022-09-30T09:58:25.241Z,23.39
2022-09-30T10:01:30.689Z,23.54
2022-09-30T10:04:11.150Z,23.68
2022-09-30T10:06:49.190Z,23.72
2022-09-30T10:09:29.679Z,23.81
2022-09-30T10:12:28.987Z,23.80
2022-09-30T10:15:22.222Z,23.79
2022-09-30T10:17:58.793Z,23.59
2022-09-30T10:20:33.178Z,23.33
2022-09-30T10:23:11.347Z,23.30
2022-09-30T10:25:39.513Z,23.32
2022-09-30T10:28:23.934Z,23.25
2022-09-30T10:30:58.726Z,23.25
2022-09-30T10:33:31.269Z,22.93
2022-09-30T10:36:06.948Z,23.01
2022-09-30T10:38:35.982Z,23.02
2022-09-30T10:41:06.432Z,22.98
2022-09-30T10:43:42.130Z,22.98
2022-09-30T10:46:25.904Z,22.88
2022-09-30T10:48:56.455Z,22.72
2022-09-30T10:51:30.817Z,22.57
2022-09-30T10:53:59.242Z,22.64
2022-09-30T10:56:45.333Z,22.76
2022-09-30T10:59:21.523Z,22.78
2022-09-30T11:01:57.646Z,22.87
2022-09-30T11:04:36.890Z,22.89
2022-09-30T11:07:17.191Z,22.85
2022-09-30T11:09:52.042Z,22.85
2022-09-30T11:12:27.231Z,22.79
2022-09-30T11:15:03.735Z,22.81
2022-09-30T11:17:41.362Z,22.81
2022-09-30T11:20:19.901Z,22.79
2022-09-30T11:22:56.559Z,22.82
2022-09-30T11:25:29.829Z,22.94
2022-09-30T11:28:15.056Z,22.97
2022-09-30T11:30:50.046Z,23.02
2022-09-30T11:33:47.151Z,23.15
2022-09-30T11:36:24.296Z,23.06
2022-09-30T11:39:02.573Z,23.10
2022-09-30T11:41:33.926Z,23.10
2022-09-30T11:44:15.731Z,23.10
2022-09-30T11:47:08.573Z,23.10
2022-09-30T11:49:56.504Z,23.20
2022-09-30T11:52:34.067Z,23.27
2022-09-30T11:55:27.330Z,23.20
2022-09-30T11:58:12.122Z,23.09
2022-09-30T12:00:55.038Z,22.91
2022-09-30T12:03:30.008Z,22.96
2022-09-30T12:06:05.028Z,23.03
2022-09-30T12:08:37.316Z,23.14
2022-09-30T12:11:11.763Z,23.15
2022-09-30T12:13:43.758Z,23.21
2022-09-30T12:16:19.760Z,23.30
2022-09-30T12:18:52.690Z,23.31
2022-09-30T12:21:26.081Z,23.38
2022-09-30T12:23:58.945Z,23.53
2022-09-30T12:26:27.431Z,23.57
2022-09-30T12:29:19.513Z,23.64
2022-09-30T12:32:06.321Z,23.63
2022-09-30T12:34:52.247Z,23.51
2022-09-30T12:37:43.305Z,23.39
2022-09-30T12:40:41.065Z,23.40
2022-09-30T12:43:23.900Z,23.39
2022-09-30T12:46:15.324Z,23.50
2022-09-30T12:48:48.725Z,23.50
2022-09-30T12:51:26.818Z,23.40
2022-09-30T12:54:04.616Z,23.39
2022-09-30T12:56:34.312Z,23.22
2022-09-30T12:59:03.906Z,23.11
2022-09-30T13:01:33.860Z,22.94
2022-09-30T13:04:19.040Z,22.87
2022-09-30T13:07:07.425Z,22.75
2022-09-30T13:09:38.648Z,22.67
2022-09-30T13:12:42.676Z,22.71
2022-09-30T13:15:41.990Z,22.67
2022-09-30T13:18:48.160Z,22.70
2022-09-30T13:21:27.592Z,22.67
2022-09-30T13:23:57.029Z,22.55
2022-09-30T13:26:39.339Z,22.59
2022-09-30T13:29:35.044Z,22.65
2022-09-30T13:32:04.714Z,22.52
2022-09-30T13:34:34.389Z,22.32
2022-09-30T13:37:04.007Z,22.37
2022-09-30T13:39:45.764Z,22.48
2022-09-30T13:42:24.568Z,22.40
2022-09-30T13:45:03.231Z,22.35
2022-09-30T13:47:36.517Z,22.31
2022-09-30T13:50:14.929Z,22.26
2022-09-30T13:52:46.171Z,22.09
2022-09-30T13:55:21.574Z,22.06
2022-09-30T13:58:04.496Z,21.94
2022-09-30T14:00:51.329Z,21.96
2022-09-30T14:03:44.935Z,22.04
2022-09-30T14:06:25.092Z,21.80
2022-09-30T14:09:18.118Z,21.77
2022-09-30T14:12:14.359Z,21.76
2022-09-30T14:15:09.621Z,21.83
2022-09-30T14:17:57.214Z,21.87
2022-09-30T14:20:41.487Z,21.87
2022-09-30T14:23:15.540Z,21.80
2022-09-30T14:25:53.294Z,21.77
2022-09-30T14:28:31.885Z,21.72
2022-09-30T14:31:10.002Z,21.71
2022-09-30T14:33:39.688Z,21.65
2022-09-30T14:36:15.885Z,21.57
2022-09-30T14:38:47.844Z,21.60
2022-09-30T14:41:20.930Z,21.59
2022-09-30T14:43:53.006Z,21.58
2022-09-30T14:46:30.279Z,21.54
2022-09-30T14:49:04.663Z,21.45
2022-09-30T14:51:43.356Z,21.41
2022-09-30T14:54:19.139Z,21.39
2022-09-30T14:56:48.289Z,21.36
2022-09-30T14:59:23.798Z,21.33
2022-09-30T15:01:56.202Z,21.29
2022-09-30T15:04:30.293Z,21.29
2022-09-30T15:07:00.428Z,21.24
2022-09-30T15:09:32.650Z,21.22
2022-09-30T15:12:06.574Z,21.20
2022-09-30T15:14:34.903Z,21.20
2022-09-30T15:17:06.461Z,21.14
2022-09-30T15:19:36.337Z,21.11
2022-09-30T15:22:09.513Z,21.04
2022-09-30T15:24:38.754Z,20.97
2022-09-30T15:27:14.822Z,20.97
2022-09-30T15:29:55.633Z,20.94
2022-09-30T15:32:27.336Z,20.88
2022-09-30T15:34:58.722Z,20.87
2022-09-30T15:37:33.630Z,20.84
2022-09-30T15:40:20.935Z,20.75
2022-09-30T15:42:56.705Z,20.64
2022-09-30T15:45:35.367Z,20.57
2022-09-30T15:48:07.350Z,20.48
2022-09-30T15:50:42.234Z,20.48
2022-09-30T15:53:25.404Z,20.48
2022-09-30T15:55:55.765Z,20.43
2022-09-30T15:58:37.890Z,20.30
2022-09-30T16:01:20.179Z,20.27
2022-09-30T16:03:54.448Z,20.19
2022-09-30T16:06:27.744Z,20.08
2022-09-30T16:09:03.178Z,20.00
2022-09-30T16:11:35.047Z,20.01
2022-09-30T16:14:05.613Z,19.88
2022-09-30T16:16:37.009Z,19.79
2022-09-30T16:19:07.634Z,19.73
2022-09-30T16:21:45.194Z,19.71
2022-09-30T16:24:47.677Z,19.71
2022-09-30T16:27:23.851Z,19.78
2022-09-30T16:29:51.909Z,19.77
2022-09-30T16:32:20.384Z,19.80
2022-09-30T16:34:49.935Z,19.80
2022-09-30T16:37:21.488Z,19.78
2022-09-30T16:39:50.302Z,19.95
2022-09-30T16:42:19.486Z,19.84
2022-09-30T16:44:47.786Z,19.86
2022-09-30T16:47:17.438Z,19.82
2022-09-30T16:49:47.659Z,19.93
2022-09-30T16:52:18.215Z,19.95
2022-09-30T16:54:46.412Z,19.99
2022-09-30T16:57:16.326Z,19.95
2022-09-30T16:59:45.668Z,19.85
2022-09-30T17:02:15.986Z,19.84
2022-09-30T17:04:45.498Z,19.79
2022-09-30T17:07:15.369Z,19.70
2022-09-30T17:09:45.541Z,19.57
2022-09-30T17:12:13.752Z,19.47
2022-09-30T17:14:43.968Z,19.42
2022-09-30T17:17:13.639Z,19.37
2022-09-30T17:19:42.329Z,19.29
2022-09-30T17:22:10.418Z,19.21
2022-09-30T17:24:38.921Z,19.17
2022-09-30T17:27:08.825Z,19.18
2022-09-30T17:29:41.992Z,19.13
2022-09-30T17:32:10.699Z,19.22
2022-09-30T17:34:39.105Z,19.19
2022-09-30T17:39:40.422Z,19.06
2022-09-30T17:42:31.519Z,18.99
2022-09-30T17:44:59.653Z,18.88
2022-09-30T17:47:27.998Z,18.91
2022-09-30T17:49:56.320Z,18.97
2022-09-30T17:52:25.243Z,18.92
2022-09-30T17:54:54.046Z,18.82
2022-09-30T17:57:23.508Z,18.83
2022-09-30T17:59:51.925Z,18.90
2022-09-30T18:02:21.326Z,19.01
2022-09-30T18:04:49.519Z,19.05
2022-09-30T18:07:18.191Z,18.83
2022-09-30T18:09:46.290Z,18.70
2022-09-30T18:12:14.445Z,18.60
2022-09-30T18:14:44.011Z,18.55
2022-09-30T18:17:12.170Z,18.49
2022-09-30T18:19:41.570Z,18.46
2022-09-30T18:22:09.794Z,18.42
2022-09-30T18:25:04.028Z,18.45
2022-09-30T18:27:34.111Z,18.48
2022-09-30T18:30:05.156Z,18.51
2022-09-30T18:32:33.945Z,18.45
2022-09-30T18:35:02.080Z,18.44
2022-09-30T18:37:33.750Z,18.48
2022-09-30T18:40:02.687Z,18.41
2022-09-30T18:42:30.739Z,18.30
2022-09-30T18:44:58.802Z,18.31
2022-09-30T18:47:28.456Z,18.30
2022-09-30T18:49:56.654Z,18.26
2022-09-30T18:52:24.710Z,18.20
2022-09-30T18:54:52.923Z,18.29
2022-09-30T18:57:21.026Z,18.30
2022-09-30T18:59:49.071Z,18.29
2022-09-30T19:02:20.770Z,18.29
2022-09-30T19:04:50.356Z,18.20
2022-09-30T19:07:20.610Z,18.13
2022-09-30T19:09:48.687Z,18.15
2022-09-30T19:12:17.742Z,18.14
2022-09-30T19:14:46.516Z,18.09
2022-09-30T19:17:15.323Z,18.06
2022-09-30T19:19:45.825Z,17.97
2022-09-30T19:22:15.563Z,17.89
2022-09-30T19:24:44.048Z,17.75
2022-09-30T19:27:12.314Z,17.77
2022-09-30T19:29:40.561Z,17.80
2022-09-30T19:32:12.815Z,17.71
2022-09-30T19:34:40.902Z,17.67
2022-09-30T19:37:18.778Z,17.62
2022-09-30T19:39:53.472Z,17.63
2022-09-30T19:42:21.520Z,17.61
2022-09-30T19:44:49.856Z,17.64
2022-09-30T19:47:18.886Z,17.71
2022-09-30T19:49:46.940Z,17.71
2022-09-30T19:52:21.897Z,17.86
2022-09-30T19:54:51.877Z,18.07
2022-09-30T19:57:23.879Z,18.17
2022-09-30T19:59:53.373Z,18.15
2022-09-30T20:02:22.237Z,18.10
2022-09-30T20:04:51.748Z,17.93
2022-09-30T20:07:19.866Z,17.94
2022-09-30T20:09:47.905Z,17.86
2022-09-30T20:12:16.010Z,17.76
2022-09-30T20:15:03.043Z,17.80
2022-09-30T20:17:31.146Z,17.86
2022-09-30T20:20:17.250Z,17.95
2022-09-30T20:22:45.329Z,18.09
2022-09-30T20:25:14.149Z,18.17
2022-09-30T20:27:43.055Z,18.26
2022-09-30T20:30:13.138Z,18.28
2022-09-30T20:32:41.302Z,18.23
2022-09-30T20:35:11.397Z,18.14
2022-09-30T20:37:40.969Z,18.11
2022-09-30T20:40:10.344Z,18.05
2022-09-30T20:42:40.134Z,18.09
2022-09-30T20:45:10.732Z,18.05
2022-09-30T20:47:40.982Z,18.00
2022-09-30T20:50:10.380Z,17.95
2022-09-30T20:52:38.740Z,17.94
2022-09-30T20:55:08.166Z,17.99
2022-09-30T20:57:36.617Z,18.31
2022-09-30T21:00:06.290Z,18.34
2022-09-30T21:02:35.587Z,18.26
2022-09-30T21:05:05.673Z,18.16
2022-09-30T21:07:36.353Z,18.04
2022-09-30T21:10:04.661Z,17.95
2022-09-30T21:12:33.020Z,17.96
2022-09-30T21:15:01.452Z,17.98
2022-09-30T21:17:29.787Z,18.05
2022-09-30T21:19:57.967Z,18.10
2022-09-30T21:22:27.428Z,18.12
2022-09-30T21:24:55.650Z,18.11
2022-09-30T21:27:23.921Z,18.04
2022-09-30T21:29:52.048Z,17.95
2022-09-30T21:32:20.608Z,17.97
2022-09-30T21:34:49.233Z,17.96
2022-09-30T21:37:18.018Z,18.10
2022-09-30T21:39:48.433Z,17.91
2022-09-30T21:42:16.600Z,17.72
2022-09-30T21:44:45.079Z,17.67
2022-09-30T21:47:13.372Z,17.65
2022-09-30T21:49:41.503Z,17.69
2022-09-30T21:52:10.825Z,17.68
2022-09-30T21:54:40.355Z,17.74
2022-09-30T21:57:10.116Z,17.69
2022-09-30T21:59:46.293Z,17.71
2022-09-30T22:02:16.822Z,17.69
2022-09-30T22:04:44.974Z,17.61
2022-09-30T22:07:15.455Z,17.62
2022-09-30T22:09:44.519Z,17.70
2022-09-30T22:12:14.155Z,17.66
2022-09-30T22:14:42.327Z,17.51
2022-09-30T22:17:10.455Z,17.44
2022-09-30T22:19:39.203Z,17.37
2022-09-30T22:22:07.336Z,17.33
2022-09-30T22:24:36.937Z,17.28
2022-09-30T22:27:07.761Z,17.27
2022-09-30T22:29:37.336Z,17.46
2022-09-30T22:32:05.585Z,17.71
2022-09-30T22:34:51.398Z,17.88
2022-09-30T22:37:37.053Z,17.97
2022-09-30T22:40:05.620Z,17.84
2022-09-30T22:42:35.747Z,17.90
2022-09-30T22:45:05.791Z,17.99
2022-09-30T22:47:34.104Z,18.05
2022-09-30T22:50:02.287Z,18.02
2022-09-30T22:52:32.021Z,17.99
2022-09-30T22:55:00.548Z,17.94
2022-09-30T22:57:28.643Z,17.77
2022-09-30T22:59:59.196Z,17.66
2022-09-30T23:02:28.832Z,17.59
2022-09-30T23:04:59.074Z,17.46
2022-09-30T23:07:27.195Z,17.35
2022-09-30T23:09:55.626Z,17.38
2022-09-30T23:12:23.906Z,17.43
2022-09-30T23:14:53.875Z,17.48
2022-09-30T23:17:22.226Z,17.53
2022-09-30T23:19:51.808Z,17.48
2022-09-30T23:22:20.061Z,17.40
2022-09-30T23:24:48.340Z,17.45
2022-09-30T23:27:16.541Z,17.49
2022-09-30T23:29:44.619Z,17.41
2022-09-30T23:32:12.788Z,17.49
2022-09-30T23:34:40.864Z,17.59
2022-09-30T23:37:10.388Z,17.71
2022-09-30T23:39:38.455Z,17.81
2022-09-30T23:42:06.615Z,17.79
2022-09-30T23:44:34.736Z,17.65
2022-09-30T23:47:21.581Z,17.55
2022-09-30T23:49:50.548Z,17.56
2022-09-30T23:52:20.002Z,17.50
2022-09-30T23:54:48.127Z,17.48
2022-09-30T23:57:16.368Z,17.57
2022-09-30T23:59:44.436Z,17.90
